Terminal Aerodrome Forecast
Issued by NWS Albany, NY

Home | Current Version | Previous Version | Text Only | Print | Product List | Glossary On
Versions: 1 2 3 4 5 6 7 8 9 10 11 12 13 14 15 16 17 18
000
FTUS41 KALY 242331
TAFALB
TAF
KALB 242331Z 2500/2524 15005KT P6SM SCT120
     FM250900 14006KT P6SM OVC100
     FM251200 12012G20KT P6SM VCSH BKN050 OVC080
     FM251500 11013G22KT 5SM -RA BR BKN025 OVC045=

USA.gov is the U.S. government's official web portal to all federal, state and local government web resources and services.